Time;durP1;ratioP1;P1;durP2;ratioP2;P2;SDS_P1;SDS_P2;PMS_P1;PMS_P2;Temp;Humidity;BMP_temperature;BMP_pressure;BME280_temperature;BME280_humidity;BME280_pressure;Samples;Min_cycle;Max_cycle;Signal;HPM_P1;HPM_P2
2022/04/25 00:01:23;;;;;;;16.00;7.17;;;;;;;14.57;66.42;100038.75;5066845;28;20076;-84
2022/04/25 00:03:50;;;;;;;16.47;6.70;;;;;;;14.84;66.67;100077.13;5055024;28;20496;-78
2022/04/25 00:06:17;;;;;;;15.53;7.30;;;;;;;14.67;66.59;100058.19;5066062;28;20515;-80
2022/04/25 00:08:44;;;;;;;15.10;7.60;;;;;;;14.41;66.50;100022.25;5069026;28;20083;-80
2022/04/25 00:11:11;;;;;;;15.23;7.30;;;;;;;14.68;66.65;100062.63;5070203;28;20545;-81
2022/04/25 00:13:37;;;;;;;12.43;6.37;;;;;;;14.30;66.63;100001.19;5069597;28;20060;-80
2022/04/25 00:16:05;;;;;;;13.30;6.70;;;;;;;14.76;66.78;100070.28;5056003;28;20492;-76
2022/04/25 00:18:32;;;;;;;16.43;6.33;;;;;;;14.66;66.69;100062.13;5066622;28;20308;-72
2022/04/25 00:21:00;;;;;;;14.23;6.60;;;;;;;14.67;66.57;100066.59;5070033;28;20502;-74
2022/04/25 00:23:27;;;;;;;14.93;6.53;;;;;;;14.67;66.85;100075.03;5070072;28;20084;-73
2022/04/25 00:25:54;;;;;;;8.40;5.40;;;;;;;14.66;66.50;100076.16;5070588;28;20121;-73
2022/04/25 00:28:21;;;;;;;13.13;6.43;;;;;;;14.57;66.42;100055.63;5064493;28;20094;-76
2022/04/25 00:30:48;;;;;;;10.87;5.37;;;;;;;14.55;66.75;100063.53;5069281;28;20067;-73
2022/04/25 00:33:16;;;;;;;10.23;5.17;;;;;;;14.63;66.51;100072.03;5066029;28;20080;-74
2022/04/25 00:35:43;;;;;;;12.57;5.53;;;;;;;14.64;66.51;100079.31;5066159;28;20126;-73
2022/04/25 00:38:10;;;;;;;12.47;5.43;;;;;;;14.62;66.58;100063.91;5069434;28;20103;-77
2022/04/25 00:40:37;;;;;;;15.03;5.63;;;;;;;14.62;66.63;100061.09;5074458;28;20488;-75
2022/04/25 00:43:05;;;;;;;13.40;5.80;;;;;;;14.59;66.75;100053.31;5072790;28;20495;-76
2022/04/25 00:45:35;;;;;;;11.37;5.30;;;;;;;14.60;66.60;100055.81;5078356;28;20041;-78
2022/04/25 00:48:03;;;;;;;11.83;6.03;;;;;;;14.59;66.84;100056.13;5075753;28;20459;-76
2022/04/25 00:50:31;;;;;;;8.63;5.37;;;;;;;14.25;66.82;100004.09;5072347;28;20094;-74
2022/04/25 00:52:59;;;;;;;14.23;5.70;;;;;;;14.57;66.66;100056.44;5074093;28;20052;-76
2022/04/25 00:55:26;;;;;;;11.90;4.93;;;;;;;14.52;66.90;100041.69;5067450;28;20450;-75
2022/04/25 00:57:56;;;;;;;10.83;5.40;;;;;;;14.46;66.84;100044.59;5070451;28;20064;-74
2022/04/25 01:00:24;;;;;;;13.27;5.10;;;;;;;14.24;67.19;100008.06;5068639;28;20059;-74
2022/04/25 01:02:51;;;;;;;11.90;5.37;;;;;;;14.14;67.08;100002.69;5068999;28;20044;-76
2022/04/25 01:05:19;;;;;;;6.87;4.40;;;;;;;14.25;67.16;100018.16;5066872;28;20529;-76
2022/04/25 01:07:46;;;;;;;10.87;5.33;;;;;;;14.43;66.92;100033.19;5069971;28;20052;-76
2022/04/25 01:10:13;;;;;;;16.83;5.23;;;;;;;14.36;66.76;100018.75;5068339;28;20052;-75
2022/04/25 01:12:40;;;;;;;7.00;4.60;;;;;;;14.49;66.70;100031.88;5071196;28;20052;-76
2022/04/25 01:15:12;;;;;;;11.97;4.23;;;;;;;14.27;67.04;100001.81;5069396;28;20040;-72
2022/04/25 01:17:39;;;;;;;8.37;4.70;;;;;;;14.29;66.87;99996.72;5073110;28;20087;-73
2022/04/25 01:20:07;;;;;;;12.13;4.07;;;;;;;14.44;66.58;100024.41;5070634;28;20040;-73
2022/04/25 01:22:44;;;;;;;7.83;4.53;;;;;;;14.29;66.86;100010.78;5070572;28;20083;-74
2022/04/25 01:27:57;;;;;;;9.07;4.43;;;;;;;14.39;66.69;100016.13;5069253;28;20052;-75
2022/04/25 01:30:24;;;;;;;6.57;4.20;;;;;;;14.31;66.55;99996.41;5067579;28;20110;-74
2022/04/25 01:32:52;;;;;;;7.97;4.17;;;;;;;14.30;66.50;99992.75;5069104;28;20507;-74
2022/04/25 01:35:19;;;;;;;8.47;4.10;;;;;;;14.39;66.34;99996.47;5072083;28;20126;-72
2022/04/25 01:37:46;;;;;;;8.20;4.13;;;;;;;14.20;66.56;99970.56;5071832;28;20078;-72
2022/04/25 01:40:13;;;;;;;9.53;4.60;;;;;;;14.43;66.39;100000.28;5071061;28;20137;-73
2022/04/25 01:42:40;;;;;;;8.30;4.13;;;;;;;14.10;66.45;99956.75;5069912;28;20122;-70
2022/04/25 01:45:07;;;;;;;12.20;3.70;;;;;;;14.28;66.73;99992.25;5058903;28;20072;-71
2022/04/25 01:47:34;;;;;;;8.07;3.90;;;;;;;13.60;66.71;99895.09;5071308;28;21393;-72
2022/04/25 01:50:01;;;;;;;11.83;4.33;;;;;;;14.13;67.16;100001.06;5063758;28;20072;-75
2022/04/25 01:52:33;;;;;;;8.00;4.50;;;;;;;13.95;67.53;99981.25;5074002;28;20088;-75
2022/04/25 01:55:01;;;;;;;8.83;4.40;;;;;;;13.93;67.75;99991.13;5069284;28;20102;-72
2022/04/25 01:57:29;;;;;;;8.13;3.90;;;;;;;13.89;67.61;99985.31;5066137;28;20056;-71
2022/04/25 01:59:57;;;;;;;12.60;4.87;;;;;;;13.85;67.67;99983.47;5067374;28;20087;-72
2022/04/25 02:02:23;;;;;;;12.43;4.90;;;;;;;13.91;67.83;99987.81;5069845;28;20048;-74
2022/04/25 02:04:51;;;;;;;12.70;5.57;;;;;;;13.69;67.92;99968.97;5069347;28;20044;-73
2022/04/25 02:07:18;;;;;;;13.43;6.17;;;;;;;13.71;68.10;99977.91;5069069;28;20595;-72
2022/04/25 02:09:45;;;;;;;11.07;4.67;;;;;;;13.61;68.13;99966.91;5072869;28;20451;-72
2022/04/25 02:12:12;;;;;;;13.30;5.90;;;;;;;13.67;68.06;99971.25;5071861;28;20068;-72
2022/04/25 02:14:41;;;;;;;10.83;6.27;;;;;;;13.58;68.24;99964.72;5072343;28;20594;-72
2022/04/25 02:17:09;;;;;;;12.98;5.95;;;;;;;13.15;68.41;99900.56;5071781;28;20305;-74
2022/04/25 02:19:38;;;;;;;19.83;6.53;;;;;;;13.35;68.78;99947.84;5065304;28;20085;-74
2022/04/25 02:22:11;;;;;;;10.82;6.47;;;;;;;13.30;68.79;99933.06;5062371;28;20091;-73
2022/04/25 02:24:39;;;;;;;7.30;5.20;;;;;;;13.44;68.82;99956.34;5074971;28;20097;-73
2022/04/25 02:27:07;;;;;;;11.80;5.60;;;;;;;13.19;68.80;99916.44;5076972;28;20072;-73
2022/04/25 02:29:35;;;;;;;16.87;6.33;;;;;;;13.38;69.08;99952.81;5068663;28;20091;-73
2022/04/25 02:32:03;;;;;;;11.30;6.47;;;;;;;13.19;68.96;99922.06;5072247;28;20109;-73
2022/04/25 02:34:31;;;;;;;9.00;6.03;;;;;;;13.22;68.82;99932.66;5075562;28;20048;-73
2022/04/25 02:36:59;;;;;;;12.80;6.78;;;;;;;13.18;69.42;99933.59;5074741;28;20504;-73
2022/04/25 02:39:26;;;;;;;14.37;6.87;;;;;;;13.09;68.77;99915.84;5071164;28;20076;-73
2022/04/25 02:41:53;;;;;;;8.10;5.07;;;;;;;12.98;69.19;99904.03;5073682;28;20076;-73
2022/04/25 02:44:20;;;;;;;8.27;5.67;;;;;;;13.07;69.49;99934.97;5070723;28;20053;-74
2022/04/25 02:46:47;;;;;;;11.47;4.77;;;;;;;12.91;70.04;99928.84;5071823;28;20094;-72
2022/04/25 02:49:14;;;;;;;14.73;6.50;;;;;;;12.92;70.06;99939.75;5073442;28;20048;-73
2022/04/25 02:51:41;;;;;;;16.13;6.33;;;;;;;12.69;70.24;99904.34;5074019;28;20125;-75
2022/04/25 02:54:08;;;;;;;10.00;3.67;;;;;;;12.74;70.49;99932.25;5071635;28;20083;-73
2022/04/25 02:56:34;;;;;;;11.33;5.87;;;;;;;12.56;70.72;99903.19;5076853;28;20125;-74
2022/04/25 02:59:01;;;;;;;13.00;5.67;;;;;;;12.58;70.81;99912.13;5078145;28;20110;-76
2022/04/25 03:01:28;;;;;;;12.07;5.63;;;;;;;12.56;71.15;99926.41;5071381;28;20211;-70
2022/04/25 03:03:55;;;;;;;10.37;5.17;;;;;;;12.28;71.33;99891.13;5074548;28;20052;-70
2022/04/25 03:06:22;;;;;;;10.73;6.07;;;;;;;12.47;71.35;99922.66;5069602;28;20526;-70
2022/04/25 03:08:49;;;;;;;19.33;7.47;;;;;;;12.36;71.21;99893.19;5067179;28;20053;-74
2022/04/25 03:11:16;;;;;;;15.27;6.10;;;;;;;12.50;71.14;99916.44;5072443;28;20137;-78
2022/04/25 03:13:43;;;;;;;12.00;5.40;;;;;;;12.43;71.04;99904.81;5072572;28;20045;-75
2022/04/25 03:16:10;;;;;;;9.67;5.37;;;;;;;12.25;71.17;99880.53;5073665;28;20083;-73
2022/04/25 03:18:37;;;;;;;10.17;5.43;;;;;;;12.12;71.17;99870.16;5062708;28;20053;-73
2022/04/25 03:21:06;;;;;;;17.20;6.57;;;;;;;12.41;71.36;99929.53;5062498;28;20071;-73
2022/04/25 03:23:36;;;;;;;10.63;6.67;;;;;;;12.31;71.05;99904.50;5069966;28;20139;-72
2022/04/25 03:26:04;;;;;;;12.40;6.55;;;;;;;12.13;70.80;99866.19;5072310;28;20041;-72
2022/04/25 03:28:31;;;;;;;13.10;7.13;;;;;;;12.43;70.55;99893.63;5072170;28;20052;-73
2022/04/25 03:30:58;;;;;;;13.57;7.13;;;;;;;12.45;70.54;99896.13;5068270;28;20076;-74
2022/04/25 03:33:31;;;;;;;10.73;6.80;;;;;;;12.23;70.55;99854.81;5071875;28;20048;-74
2022/04/25 03:35:58;;;;;;;13.00;6.93;;;;;;;12.52;70.52;99897.38;5070664;28;20506;-74
2022/04/25 03:38:25;;;;;;;13.37;7.60;;;;;;;12.45;70.70;99896.97;5072951;28;20049;-74
2022/04/25 03:40:54;;;;;;;10.37;6.43;;;;;;;12.24;70.55;99850.88;5073005;28;20079;-73
2022/04/25 03:43:23;;;;;;;14.80;6.70;;;;;;;12.42;70.57;99886.38;5069691;28;20049;-74
2022/04/25 03:45:50;;;;;;;10.17;6.27;;;;;;;12.46;70.45;99895.81;5069664;28;20491;-70
2022/04/25 03:48:17;;;;;;;16.47;5.97;;;;;;;12.38;70.69;99888.13;5072043;28;20098;-71
2022/04/25 03:50:44;;;;;;;23.80;8.17;;;;;;;12.28;70.65;99880.75;5071281;28;20048;-72
2022/04/25 03:53:13;;;;;;;14.27;8.47;;;;;;;12.41;70.73;99887.53;5066314;28;20072;-73
2022/04/25 03:58:26;;;;;;;18.30;9.83;;;;;;;12.00;70.79;99829.50;5061211;28;20368;-72
2022/04/25 04:00:53;;;;;;;16.43;9.13;;;;;;;12.52;70.03;99880.56;5066948;28;20086;-73
2022/04/25 04:03:20;;;;;;;22.33;10.03;;;;;;;12.60;69.59;99858.59;5068630;28;20074;-73
2022/04/25 04:05:50;;;;;;;17.97;9.77;;;;;;;12.82;69.22;99883.91;5066049;28;20045;-73
2022/04/25 04:08:18;;;;;;;18.20;9.80;;;;;;;12.73;69.04;99868.97;5073307;28;20052;-72
2022/04/25 04:10:45;;;;;;;19.10;8.23;;;;;;;12.83;69.14;99881.94;5070914;28;20056;-73
2022/04/25 04:13:12;;;;;;;13.70;8.07;;;;;;;12.12;69.56;99781.41;5068602;28;20102;-75
2022/04/25 04:15:40;;;;;;;17.60;8.47;;;;;;;12.57;69.58;99888.88;5062458;28;20125;-75
2022/04/25 04:18:08;;;;;;;18.93;8.43;;;;;;;12.29;69.92;99871.22;5068696;28;20044;-75
2022/04/25 04:20:35;;;;;;;17.60;8.63;;;;;;;12.41;69.97;99873.53;5069973;28;20468;-70
2022/04/25 04:23:03;;;;;;;12.33;7.53;;;;;;;12.48;69.57;99884.31;5082948;28;20079;-73
2022/04/25 04:25:32;;;;;;;19.27;8.30;;;;;;;12.32;69.80;99869.78;5071972;28;20080;-72
2022/04/25 04:27:59;;;;;;;;;;;;;;;12.27;70.46;99886.66;5066689;28;20052;-72
2022/04/25 04:30:26;;;;;;;17.53;9.07;;;;;;;12.17;70.03;99875.63;5069523;28;19964;-75
2022/04/25 04:32:54;;;;;;;21.63;8.87;;;;;;;11.96;70.17;99858.38;5067248;28;20044;-75
2022/04/25 04:38:10;;;;;;;12.80;7.70;;;;;;;11.86;70.50;99867.78;5068327;28;20475;-75
2022/04/25 04:40:38;;;;;;;11.73;5.50;;;;;;;11.74;70.85;99871.03;5069589;28;20121;-75
2022/04/25 04:43:05;;;;;;;16.57;5.20;;;;;;;11.68;70.98;99888.19;5067515;28;20045;-75
2022/04/25 04:45:32;;;;;;;11.30;5.93;;;;;;;11.40;71.51;99871.28;5070248;28;20129;-75
2022/04/25 04:47:59;;;;;;;12.77;6.67;;;;;;;11.26;71.39;99864.81;5063735;28;20153;-74
2022/04/25 04:50:27;;;;;;;19.93;5.33;;;;;;;11.29;71.31;99870.63;5055989;28;22547;-76
2022/04/25 04:52:59;;;;;;;6.30;3.63;;;;;;;11.26;71.64;99881.56;5060507;28;20139;-77
2022/04/25 04:55:27;;;;;;;30.43;6.07;;;;;;;10.73;72.13;99825.84;5068251;28;20131;-76
2022/04/25 04:57:55;;;;;;;13.37;5.93;;;;;;;10.79;72.29;99841.41;5071797;28;20065;-76
2022/04/25 05:00:23;;;;;;;12.47;5.80;;;;;;;10.98;72.81;99881.41;5066902;28;20072;-77
2022/04/25 05:02:51;;;;;;;9.83;4.30;;;;;;;10.90;73.04;99879.25;5058176;28;20053;-76
2022/04/25 05:05:19;;;;;;;7.63;4.03;;;;;;;10.91;73.08;99880.94;5060505;28;20048;-79
2022/04/25 05:07:46;;;;;;;13.33;5.67;;;;;;;10.40;73.22;99798.63;5071663;28;20044;-76
2022/04/25 05:10:13;;;;;;;14.10;7.17;;;;;;;10.91;72.73;99875.34;5071094;28;20056;-75
2022/04/25 05:12:51;;;;;;;18.37;6.53;;;;;;;10.54;72.65;99809.09;5069695;28;20109;-78
2022/04/25 05:15:19;;;;;;;11.90;6.70;;;;;;;10.91;73.00;99864.19;5051992;28;20122;-79
2022/04/25 05:17:50;;;;;;;8.73;4.93;;;;;;;10.84;72.93;99863.72;5069199;28;20053;-79
2022/04/25 05:20:18;;;;;;;13.60;4.73;;;;;;;10.49;73.00;99823.09;5072118;28;20048;-79
2022/04/25 05:22:46;;;;;;;14.83;5.07;;;;;;;10.73;73.49;99876.94;5066500;28;20060;-72
2022/04/25 05:25:15;;;;;;;11.77;4.40;;;;;;;10.52;73.19;99842.88;5068573;28;20504;-72
2022/04/25 05:27:43;;;;;;;13.83;4.63;;;;;;;10.16;73.19;99779.09;5067629;28;20158;-73
2022/04/25 05:30:11;;;;;;;15.47;4.60;;;;;;;10.63;73.54;99875.13;5064541;28;20048;-77
2022/04/25 05:32:58;;;;;;;11.63;3.77;;;;;;;10.15;74.08;99833.22;5070731;28;20048;-77
2022/04/25 05:35:29;;;;;;;20.30;7.40;;;;;;;10.57;74.05;99881.09;5069749;28;20109;-76
2022/04/25 05:37:56;;;;;;;17.53;7.30;;;;;;;10.48;74.22;99878.09;5057141;28;20083;-76
2022/04/25 05:40:25;;;;;;;29.60;7.47;;;;;;;10.52;73.94;99879.16;5075186;28;20075;-77
2022/04/25 05:42:54;;;;;;;12.63;6.53;;;;;;;10.53;73.68;99868.81;5082500;28;20064;-81
2022/04/25 05:45:23;;;;;;;14.03;7.17;;;;;;;10.64;73.42;99884.34;5068968;28;20143;-78
2022/04/25 05:47:54;;;;;;;22.33;7.37;;;;;;;10.43;73.05;99845.50;5067603;28;20434;-77
2022/04/25 05:53:08;;;;;;;15.80;7.13;;;;;;;10.99;72.11;99865.47;5074626;28;20159;-74
2022/04/25 05:55:36;;;;;;;15.73;6.97;;;;;;;10.78;72.29;99845.34;5072495;28;20463;-73
2022/04/25 05:58:08;;;;;;;16.10;7.53;;;;;;;11.07;72.55;99907.53;5073832;28;20083;-79
2022/04/25 06:00:35;;;;;;;14.53;7.33;;;;;;;11.02;72.36;99888.03;5075030;28;20484;-74
2022/04/25 06:03:02;;;;;;;16.43;7.50;;;;;;;11.34;71.77;99911.63;5070244;28;20045;-78
2022/04/25 06:05:29;;;;;;;13.03;7.17;;;;;;;11.40;71.40;99904.84;5073816;28;20049;-70
2022/04/25 06:07:56;;;;;;;16.27;7.87;;;;;;;11.53;70.88;99892.06;5071870;28;20119;-71
2022/04/25 06:10:25;;;;;;;14.23;8.03;;;;;;;11.68;70.92;99910.56;5076188;28;20052;-78
2022/04/25 06:12:53;;;;;;;15.13;7.40;;;;;;;11.21;71.42;99839.72;5074893;28;20056;-76
2022/04/25 06:15:24;;;;;;;13.60;6.40;;;;;;;11.54;71.44;99905.75;5072414;28;20565;-76
2022/04/25 06:17:56;;;;;;;18.60;8.63;;;;;;;11.07;71.73;99854.44;5074317;28;20048;-77
2022/04/25 06:20:23;;;;;;;45.77;8.37;;;;;;;11.08;72.03;99884.06;5074986;28;20076;-76
2022/04/25 06:22:58;;;;;;;7.23;2.97;;;;;;;11.04;72.65;99908.16;5072389;28;20048;-75
2022/04/25 06:25:27;;;;;;;36.03;8.63;;;;;;;11.03;72.80;99916.81;5071298;28;20049;-76
2022/04/25 06:27:55;;;;;;;34.43;9.53;;;;;;;11.04;72.91;99907.28;5073055;28;20121;-76
2022/04/25 06:30:23;;;;;;;36.80;9.13;;;;;;;11.11;72.89;99890.97;5070936;28;20057;-74
2022/04/25 06:32:52;;;;;;;25.23;9.23;;;;;;;11.05;72.79;99858.69;5074843;28;20066;-75
2022/04/25 06:35:20;;;;;;;24.27;9.57;;;;;;;11.34;72.77;99906.03;5073930;28;20514;-74
2022/04/25 06:37:48;;;;;;;20.93;8.77;;;;;;;11.34;72.38;99883.69;5066059;28;20048;-74
2022/04/25 06:40:16;;;;;;;31.20;8.53;;;;;;;10.88;72.46;99800.53;5073743;28;20048;-75
2022/04/25 06:42:43;;;;;;;19.40;8.23;;;;;;;11.66;72.19;99912.84;5073506;28;20110;-75
2022/04/25 06:45:10;;;;;;;28.90;9.80;;;;;;;11.67;71.97;99901.34;5070984;28;20083;-75
2022/04/25 06:47:37;;;;;;;26.23;9.40;;;;;;;11.88;71.59;99915.88;5074295;28;20072;-75
2022/04/25 06:50:05;;;;;;;26.60;9.60;;;;;;;11.95;71.86;99904.28;5073767;28;20522;-74
2022/04/25 06:52:33;;;;;;;21.23;9.13;;;;;;;11.77;71.79;99886.38;5070756;28;20067;-75
2022/04/25 06:55:04;;;;;;;17.93;9.03;;;;;;;11.93;72.06;99913.00;5068977;28;20090;-75
2022/04/25 06:57:36;;;;;;;20.13;7.43;;;;;;;12.03;71.71;99900.78;5072081;28;20060;-75
2022/04/25 07:00:08;;;;;;;17.67;8.30;;;;;;;12.16;71.54;99891.59;5072183;28;20053;-76
2022/04/25 07:02:55;;;;;;;16.17;7.27;;;;;;;12.56;71.54;99920.00;5068353;28;20048;-76
2022/04/25 07:05:24;;;;;;;16.87;8.23;;;;;;;12.69;71.06;99890.34;5069587;28;20273;-75
2022/04/25 07:07:51;;;;;;;16.77;8.57;;;;;;;12.77;70.48;99854.00;5068430;28;20041;-77
2022/04/25 07:10:18;;;;;;;20.40;7.93;;;;;;;13.04;69.81;99863.53;5071148;28;20084;-77
2022/04/25 07:12:45;;;;;;;12.90;6.83;;;;;;;13.31;68.95;99896.31;5069100;28;20121;-76
2022/04/25 07:15:12;;;;;;;12.60;7.40;;;;;;;13.42;68.73;99866.91;5069902;28;20049;-77
2022/04/25 07:17:39;;;;;;;12.37;6.67;;;;;;;13.82;67.98;99917.59;5069449;28;20098;-79
2022/04/25 07:20:07;;;;;;;14.43;7.57;;;;;;;13.92;67.38;99917.34;5072257;28;20080;-82
2022/04/25 07:30:51;;;;;;;11.07;6.73;;;;;;;14.66;65.20;99918.78;5068591;28;21714;-82
2022/04/25 07:33:17;;;;;;;11.57;6.50;;;;;;;14.85;64.96;99927.00;5073242;28;20082;-83
2022/04/25 07:35:44;;;;;;;11.95;7.50;;;;;;;15.10;64.72;99934.69;5073248;28;20407;-82
2022/04/25 07:38:12;;;;;;;15.53;7.10;;;;;;;15.20;63.95;99916.69;5072725;28;20049;-82
2022/04/25 07:40:41;;;;;;;12.55;6.50;;;;;;;15.16;63.56;99933.38;5069965;28;20056;-84
2022/04/25 07:43:10;;;;;;;13.17;7.43;;;;;;;14.87;63.28;99880.53;5070145;28;20040;-79
2022/04/25 07:45:37;;;;;;;12.07;5.90;;;;;;;15.17;62.66;99903.25;5065213;28;20157;-77
2022/04/25 07:48:05;;;;;;;10.37;6.33;;;;;;;15.29;62.49;99897.03;5069551;28;20143;-88
2022/04/25 07:50:32;;;;;;;13.02;6.72;;;;;;;15.57;62.01;99920.06;5086118;28;20082;-78
2022/04/25 07:52:58;;;;;;;14.18;7.00;;;;;;;15.98;61.40;99932.84;5064893;28;20507;-74
2022/04/25 07:55:25;;;;;;;11.93;6.82;;;;;;;16.32;61.61;99924.34;5066246;28;20085;-76
2022/04/25 07:57:52;;;;;;;13.05;8.20;;;;;;;16.52;60.78;99916.38;5066904;28;20108;-77
2022/04/25 08:00:19;;;;;;;8.95;6.10;;;;;;;16.99;60.32;99944.56;5069432;28;20484;-78
2022/04/25 08:02:46;;;;;;;8.45;6.15;;;;;;;17.17;59.91;99940.53;5069089;28;20506;-78
2022/04/25 08:05:13;;;;;;;12.85;6.65;;;;;;;17.46;59.35;99950.13;5076189;28;20048;-78
2022/04/25 08:07:40;;;;;;;11.00;6.20;;;;;;;17.04;58.53;99840.03;5090381;28;20048;-80
2022/04/25 08:10:07;;;;;;;11.90;6.35;;;;;;;17.86;58.43;99936.44;5095783;28;20071;-74
2022/04/25 08:18:06;;;;;;;10.45;5.88;;;;;;;18.28;57.28;99885.50;5086296;28;20086;-75
2022/04/25 08:20:36;;;;;;;9.68;5.93;;;;;;;18.83;56.57;99906.03;5078568;28;20080;-74
2022/04/25 08:23:08;;;;;;;7.53;4.75;;;;;;;19.40;55.99;99931.41;5080722;28;20052;-73
2022/04/25 08:25:35;;;;;;;7.45;4.28;;;;;;;19.58;54.58;99936.81;5072287;28;20519;-74
2022/04/25 08:28:02;;;;;;;10.93;5.07;;;;;;;19.72;54.48;99928.78;5066807;28;20045;-75
2022/04/25 08:30:29;;;;;;;6.78;4.93;;;;;;;19.83;54.04;99937.63;5064225;28;20076;-77
2022/04/25 08:32:56;;;;;;;7.28;4.75;;;;;;;19.87;53.79;99924.41;5065475;28;20511;-77
2022/04/25 08:35:24;;;;;;;10.27;5.03;;;;;;;19.91;53.21;99882.81;5070396;28;20083;-77
2022/04/25 08:37:51;;;;;;;11.57;5.43;;;;;;;20.15;51.90;99921.59;5071771;28;20113;-76
2022/04/25 08:40:18;;;;;;;7.40;4.75;;;;;;;19.87;51.67;99876.22;5072280;28;20440;-77
2022/04/25 08:42:45;;;;;;;5.43;4.13;;;;;;;20.19;51.37;99899.81;5070897;28;20110;-77
2022/04/25 08:45:13;;;;;;;6.40;3.67;;;;;;;20.16;50.02;99908.22;5072204;28;20076;-75
2022/04/25 08:48:01;;;;;;;6.10;3.60;;;;;;;20.15;50.41;99898.09;5072696;28;20075;-76
2022/04/25 08:50:30;;;;;;;7.65;3.00;;;;;;;20.43;50.51;99926.41;5070658;28;20492;-76
2022/04/25 08:52:57;;;;;;;5.60;3.92;;;;;;;20.44;50.05;99923.19;5068340;28;20056;-76
2022/04/25 08:55:28;;;;;;;6.35;2.83;;;;;;;20.36;48.95;99927.84;5067494;28;20097;-76
2022/04/25 08:57:57;;;;;;;11.95;5.70;;;;;;;20.39;48.93;99920.66;5072263;28;20106;-77
2022/04/25 09:00:25;;;;;;;6.90;5.03;;;;;;;20.42;49.22;99897.22;5070669;28;20121;-76
2022/04/25 09:02:54;;;;;;;7.93;5.90;;;;;;;20.66;48.31;99896.28;5072112;28;20045;-78
2022/04/25 09:05:22;;;;;;;;;;;;;;;20.77;48.44;99927.78;5071687;28;20414;-76
2022/04/25 09:07:49;;;;;;;6.15;2.97;;;;;;;20.95;47.83;99931.91;5066271;28;19971;-75
2022/04/25 09:10:18;;;;;;;6.53;3.47;;;;;;;21.09;47.48;99919.28;5071470;28;20517;-76
2022/04/25 09:12:48;;;;;;;6.28;3.63;;;;;;;21.50;47.36;99924.41;5065826;28;20049;-75
2022/04/25 09:15:19;;;;;;;7.32;3.70;;;;;;;21.56;46.92;99921.25;5064109;28;20468;-76
2022/04/25 09:17:57;;;;;;;5.25;2.55;;;;;;;21.78;47.08;99866.56;5070736;28;20055;-76
2022/04/25 09:20:25;;;;;;;4.30;2.10;;;;;;;22.45;46.49;99926.88;5069010;28;20048;-76
2022/04/25 09:22:52;;;;;;;2.67;1.88;;;;;;;22.36;45.15;99928.28;5068789;28;20503;-76
2022/04/25 09:25:20;;;;;;;2.88;2.15;;;;;;;22.54;45.29;99920.97;5071593;28;20052;-75
2022/04/25 09:28:12;;;;;;;3.65;2.05;;;;;;;22.90;45.06;99913.88;5062982;28;20495;-76
2022/04/25 09:30:55;;;;;;;3.65;1.98;;;;;;;22.65;43.58;99916.28;5068595;28;20048;-75
2022/04/25 09:33:23;;;;;;;4.85;2.03;;;;;;;22.82;43.20;99928.38;5068231;28;20094;-75
2022/04/25 09:35:55;;;;;;;4.82;1.92;;;;;;;22.84;43.34;99911.75;5069562;28;20094;-75
2022/04/25 09:38:30;;;;;;;6.72;1.73;;;;;;;22.59;41.99;99905.59;5066460;28;20076;-75
2022/04/25 09:40:57;;;;;;;4.32;2.05;;;;;;;22.88;42.00;99936.22;5070464;28;20076;-75
2022/04/25 09:43:32;;;;;;;7.78;2.30;;;;;;;22.79;42.61;99881.56;5072365;28;20079;-74
2022/04/25 09:46:04;;;;;;;4.15;1.55;;;;;;;23.17;41.80;99934.72;5062583;28;20056;-75
2022/04/25 09:48:31;;;;;;;4.35;2.10;;;;;;;23.06;41.31;99935.75;5070769;28;20083;-73
2022/04/25 09:50:59;;;;;;;5.47;3.05;;;;;;;23.24;41.25;99942.56;5071320;28;20055;-74
2022/04/25 09:53:53;;;;;;;5.75;2.35;;;;;;;23.59;41.48;99924.41;5068848;28;20098;-74
2022/04/25 09:56:22;;;;;;;5.45;2.60;;;;;;;23.48;40.83;99912.03;5067981;28;20080;-73
2022/04/25 09:59:05;;;;;;;2.97;2.10;;;;;;;23.26;41.45;99888.91;5070813;28;20098;-73
2022/04/25 10:01:34;;;;;;;5.07;2.42;;;;;;;23.96;41.06;99921.69;5070872;28;20127;-74
2022/04/25 10:04:03;;;;;;;4.95;2.17;;;;;;;23.94;40.13;99929.03;5064127;28;20508;-74
2022/04/25 10:06:32;;;;;;;2.50;2.00;;;;;;;24.20;40.27;99933.84;5070009;28;20122;-73
2022/04/25 10:09:04;;;;;;;4.43;2.53;;;;;;;24.36;39.71;99926.72;5068761;28;20044;-74
2022/04/25 10:11:39;;;;;;;3.50;2.53;;;;;;;24.80;39.99;99920.28;5071424;28;20573;-73
2022/04/25 10:14:07;;;;;;;9.23;2.80;;;;;;;24.84;39.57;99917.47;5064544;28;20045;-73
2022/04/25 10:16:34;;;;;;;2.50;2.10;;;;;;;25.40;39.98;99919.22;5069432;28;20052;-73
2022/04/25 10:19:01;;;;;;;4.57;2.95;;;;;;;26.08;39.03;99922.50;5070809;28;20106;-73
2022/04/25 10:21:30;;;;;;;5.57;3.17;;;;;;;26.38;39.27;99893.59;5070059;28;20053;-73
2022/04/25 10:23:57;;;;;;;4.30;2.88;;;;;;;27.04;38.38;99916.25;5070755;28;20079;-73
2022/04/25 10:26:29;;;;;;;6.53;2.75;;;;;;;27.19;38.12;99916.31;5070075;28;20098;-74
2022/04/25 10:28:59;;;;;;;7.85;2.22;;;;;;;26.94;38.17;99909.31;5070094;28;20171;-74
2022/04/25 10:31:30;;;;;;;3.58;2.35;;;;;;;26.17;37.60;99897.22;5071769;28;20564;-74
2022/04/25 10:33:59;;;;;;;4.80;2.63;;;;;;;26.67;37.75;99917.47;5070704;28;20048;-73
2022/04/25 10:36:38;;;;;;;5.15;2.42;;;;;;;27.21;37.57;99917.53;5069599;28;20048;-74
2022/04/25 10:39:12;;;;;;;;;;;;;;;27.07;39.71;99923.22;5072726;28;20118;-75
2022/04/25 10:44:29;;;;;;;8.07;2.60;;;;;;;26.08;38.76;99931.09;5048494;28;20106;-74
2022/04/25 10:47:05;;;;;;;4.30;2.10;;;;;;;25.93;39.02;99912.22;5073271;28;20102;-73
2022/04/25 10:49:35;;;;;;;5.25;2.13;;;;;;;25.51;38.92;99925.84;5073433;28;20056;-74
2022/04/25 10:52:04;;;;;;;6.28;2.20;;;;;;;24.82;39.53;99894.22;5072305;28;20052;-73
2022/04/25 10:54:48;;;;;;;6.43;2.60;;;;;;;25.20;39.36;99884.38;5070170;28;20075;-74
2022/04/25 10:57:16;;;;;;;5.00;1.95;;;;;;;25.46;38.79;99913.94;5067179;28;20084;-74
2022/04/25 10:59:43;;;;;;;8.82;2.55;;;;;;;25.77;38.38;99926.81;5072765;28;20392;-74
2022/04/25 11:02:21;;;;;;;6.72;2.80;;;;;;;26.64;38.64;99906.81;5071294;28;20056;-73
2022/04/25 11:05:10;;;;;;;11.07;2.80;;;;;;;27.21;37.65;99908.13;5073886;28;20060;-73
2022/04/25 11:07:42;;;;;;;10.40;2.97;;;;;;;27.37;37.23;99911.41;5070816;28;20080;-73
2022/04/25 11:10:49;;;;;;;3.65;2.35;;;;;;;27.57;37.15;99883.91;5069159;28;20102;-72
2022/04/25 11:13:22;;;;;;;5.72;2.67;;;;;;;27.48;36.77;99828.22;5064159;28;20098;-72
2022/04/25 11:15:54;;;;;;;3.55;2.08;;;;;;;28.32;36.17;99894.34;5064870;28;20110;-72
2022/04/25 11:18:33;;;;;;;4.05;2.30;;;;;;;28.54;35.41;99889.34;5060852;28;20055;-72
2022/04/25 11:21:04;;;;;;;3.58;2.30;;;;;;;28.99;35.64;99898.94;5069312;28;20080;-72
2022/04/25 11:23:47;;;;;;;3.63;2.13;;;;;;;29.20;34.89;99877.00;5070869;28;20053;-73
2022/04/25 11:26:20;;;;;;;4.65;2.00;;;;;;;29.47;35.13;99888.63;5067074;28;20076;-71
2022/04/25 11:29:03;;;;;;;5.78;2.55;;;;;;;29.36;34.86;99891.63;5071858;28;20443;-72
2022/04/25 11:31:31;;;;;;;5.45;2.40;;;;;;;29.38;34.33;99897.78;5071069;28;20124;-74
2022/04/25 11:34:05;;;;;;;7.55;2.78;;;;;;;28.92;34.63;99904.69;5073887;28;20052;-72
2022/04/25 11:36:36;;;;;;;5.18;2.47;;;;;;;28.38;34.88;99892.69;5061849;28;20824;-71
2022/04/25 11:41:50;;;;;;;5.28;2.72;;;;;;;27.17;35.27;99831.53;5067549;28;20080;-74
2022/04/25 11:44:17;;;;;;;8.15;2.85;;;;;;;27.39;35.79;99901.16;5072917;28;20080;-74
2022/04/25 11:46:45;;;;;;;4.93;2.90;;;;;;;27.55;35.41;99877.75;5071127;28;20083;-73
2022/04/25 11:49:12;;;;;;;5.70;2.85;;;;;;;28.16;35.15;99894.03;5070175;28;20532;-73
2022/04/25 11:51:40;;;;;;;6.63;2.97;;;;;;;28.38;34.77;99846.75;5072902;28;20084;-74
2022/04/25 11:54:08;;;;;;;5.32;2.63;;;;;;;29.18;33.89;99882.34;5063873;28;20503;-74
2022/04/25 11:56:40;;;;;;;8.25;2.63;;;;;;;29.69;33.53;99884.34;5067255;28;20109;-73
2022/04/25 11:59:13;;;;;;;8.43;3.20;;;;;;;29.79;33.02;99813.53;5072114;28;20045;-72
2022/04/25 12:01:41;;;;;;;5.50;2.47;;;;;;;30.69;32.14;99883.06;5071352;28;20492;-73
2022/04/25 12:04:34;;;;;;;4.32;2.28;;;;;;;30.39;32.31;99871.59;5074234;28;20052;-73
2022/04/25 12:07:08;;;;;;;5.20;4.80;;;;;;;29.58;32.91;99888.56;5076041;28;20052;-73
2022/04/25 12:15:36;;;;;;;5.80;2.88;;;;;;;29.25;31.85;99862.16;5065171;28;20052;-73